.
WxDataArchive / Data Records for 2010-11-27
2010-11-26 November 2010 2010-11-28

Data Records for Saturday, 27 November 2010

Time	Temp	Chill	HIndex	Humid	Dewpt	 Wind 	HiWind	WindDir	Rain 	Barom 
-----	----	-----	------	-----	-----	------	------	-------	-----	----- 
00:00	31.6	26.6	31.6	63	20.5	5	9	270	0.00	29.838 
00:05	31.6	26.6	31.6	63	20.5	5	10	270	0.00	29.838 
00:10	31.5	27.5	31.5	63	20.4	4	6	270	0.00	29.838 
00:15	31.3	27.3	31.3	64	20.6	4	7	270	0.00	29.835 
00:20	31.2	27.2	31.2	64	20.5	4	13	270	0.00	29.835 
00:25	31.0	26.9	31.0	64	20.3	4	10	270	0.00	29.835 
00:30	31.0	26.9	31.0	64	20.3	4	10	270	0.00	29.837 
00:35	30.9	26.8	30.9	65	20.5	4	7	270	0.00	29.837 
00:40	30.7	26.6	30.7	65	20.3	4	7	270	0.00	29.837 
00:45	30.4	26.2	30.4	65	20.1	4	7	270	0.00	29.839 
00:50	30.3	30.3	30.3	65	20.0	3	7	270	0.00	29.839 
00:55	30.3	26.1	30.3	66	20.3	4	6	270	0.00	29.839 
01:00	30.3	26.1	30.3	66	20.3	4	7	270	0.00	29.841 
01:05	30.3	26.1	30.3	66	20.3	4	10	270	0.00	29.841 
01:10	30.3	26.1	30.3	66	20.3	4	7	270	0.00	29.841 
01:15	30.3	26.1	30.3	65	20.0	4	7	270	0.00	29.841 
01:20	30.3	26.1	30.3	65	20.0	4	9	270	0.00	29.841 
01:25	30.4	26.2	30.4	65	20.1	4	10	270	0.00	29.841 
01:30	30.4	30.4	30.4	65	20.1	3	10	248	0.00	29.849 
01:35	30.4	26.2	30.4	65	20.1	4	7	270	0.00	29.849 
01:40	30.4	26.2	30.4	65	20.1	4	7	270	0.00	29.849 
01:45	30.4	30.4	30.4	65	20.1	3	6	270	0.00	29.851 
01:50	30.4	30.4	30.4	66	20.4	3	7	248	0.00	29.851 
01:55	30.3	30.3	30.3	66	20.3	3	6	248	0.00	29.851 
02:00	30.3	30.3	30.3	67	20.7	3	6	270	0.00	29.851 
02:05	30.3	30.3	30.3	67	20.7	3	10	270	0.00	29.851 
02:10	30.3	26.1	30.3	67	20.7	4	7	270	0.00	29.851 
02:15	30.3	30.3	30.3	67	20.7	3	10	248	0.00	29.852 
02:20	30.1	30.1	30.1	67	20.5	3	7	270	0.00	29.852 
02:25	30.1	30.1	30.1	67	20.5	2	7	248	0.00	29.852 
02:30	30.1	30.1	30.1	68	20.8	2	4	248	0.00	29.850 
02:35	30.1	30.1	30.1	68	20.8	2	6	248	0.00	29.850 
02:40	30.1	30.1	30.1	68	20.8	3	4	248	0.00	29.850 
02:45	30.1	30.1	30.1	68	20.8	3	6	248	0.00	29.853 
02:50	30.1	30.1	30.1	67	20.5	3	6	270	0.00	29.853 
02:55	30.3	30.3	30.3	67	20.7	3	5	248	0.00	29.853 
03:00	30.3	30.3	30.3	67	20.7	2	4	248	0.00	29.862 
03:05	30.3	30.3	30.3	67	20.7	2	7	248	0.00	29.862 
03:10	30.3	30.3	30.3	67	20.7	2	7	270	0.00	29.862 
03:15	30.3	30.3	30.3	66	20.3	3	5	248	0.00	29.869 
03:20	30.3	30.3	30.3	66	20.3	3	6	270	0.00	29.869 
03:25	30.3	30.3	30.3	66	20.3	2	4	248	0.00	29.869 
03:30	30.3	30.3	30.3	66	20.3	3	6	248	0.00	29.869 
03:35	30.4	30.4	30.4	65	20.1	3	9	270	0.00	29.869 
03:40	30.4	30.4	30.4	65	20.1	2	5	225	0.00	29.869 
03:45	30.3	30.3	30.3	65	20.0	2	5	225	0.00	29.871 
03:50	30.3	30.3	30.3	65	20.0	2	5	270	0.00	29.871 
03:55	30.4	30.4	30.4	65	20.1	2	4	270	0.00	29.871 
04:00	30.3	30.3	30.3	65	20.0	2	4	248	0.00	29.871 
04:05	30.3	30.3	30.3	65	20.0	2	4	225	0.00	29.871 
04:10	30.3	30.3	30.3	65	20.0	2	4	225	0.00	29.871 
04:15	30.3	30.3	30.3	65	20.0	3	4	270	0.00	29.876 
04:20	30.3	30.3	30.3	65	20.0	3	5	248	0.00	29.876 
04:25	30.3	30.3	30.3	65	20.0	3	5	270	0.00	29.876 
04:30	30.3	30.3	30.3	65	20.0	3	7	270	0.00	29.878 
04:35	30.1	30.1	30.1	65	19.8	2	5	248	0.00	29.878 
04:40	30.1	30.1	30.1	65	19.8	2	5	225	0.00	29.878 
04:45	30.1	30.1	30.1	65	19.8	2	4	248	0.00	29.885 
04:50	30.1	30.1	30.1	65	19.8	3	7	270	0.00	29.885 
04:55	30.1	30.1	30.1	65	19.8	2	5	248	0.00	29.885 
05:00	30.0	30.0	30.0	65	19.7	2	6	248	0.00	29.888 
05:05	30.0	30.0	30.0	65	19.7	2	5	225	0.00	29.888 
05:10	30.0	30.0	30.0	65	19.7	2	5	270	0.00	29.888 
05:15	30.0	30.0	30.0	65	19.7	2	5	248	0.00	29.894 
05:20	30.0	30.0	30.0	65	19.7	3	7	270	0.00	29.894 
05:25	30.0	30.0	30.0	65	19.7	2	5	248	0.00	29.894 
05:30	29.8	29.8	29.8	65	19.5	2	4	248	0.00	29.903 
05:35	29.8	29.8	29.8	65	19.5	2	5	248	0.00	29.903 
05:40	29.8	29.8	29.8	65	19.5	2	4	270	0.00	29.903 
05:45	29.8	29.8	29.8	66	19.8	2	4	248	0.00	29.915 
05:50	29.8	29.8	29.8	66	19.8	2	4	248	0.00	29.915 
05:55	29.8	29.8	29.8	66	19.8	2	4	248	0.00	29.915 
06:00	29.8	29.8	29.8	66	19.8	1	5	248	0.00	29.921 
06:05	29.7	29.7	29.7	66	19.8	2	5	270	0.00	29.921 
06:10	29.7	29.7	29.7	66	19.8	1	6	270	0.00	29.921 
06:15	29.7	29.7	29.7	66	19.8	2	4	270	0.00	29.933 
06:20	29.7	29.7	29.7	66	19.8	2	4	248	0.00	29.933 
06:25	29.5	29.5	29.5	66	19.6	2	4	248	0.00	29.933 
06:30	29.5	29.5	29.5	66	19.6	2	7	248	0.00	29.939 
06:35	29.5	29.5	29.5	66	19.6	2	6	292	0.00	29.939 
06:40	29.4	29.4	29.4	66	19.5	2	4	225	0.00	29.939 
06:45	29.4	29.4	29.4	66	19.5	2	4	270	0.00	29.952 
06:50	29.4	29.4	29.4	66	19.5	2	9	292	0.00	29.952 
06:55	29.4	29.4	29.4	66	19.5	2	4	270	0.00	29.952 
07:00	29.4	29.4	29.4	66	19.5	2	5	248	0.00	29.954 
07:05	29.4	29.4	29.4	66	19.5	2	5	248	0.00	29.954 
07:10	29.4	29.4	29.4	66	19.5	1	3	270	0.00	29.954 
07:15	29.4	29.4	29.4	66	19.5	3	7	270	0.00	29.966 
07:20	29.4	29.4	29.4	66	19.5	2	6	225	0.00	29.966 
07:25	29.3	29.3	29.3	66	19.4	2	4	248	0.00	29.966 
07:30	29.3	29.3	29.3	66	19.4	2	7	248	0.00	29.968 
07:35	29.3	29.3	29.3	67	19.7	2	4	248	0.00	29.968 
07:40	29.3	29.3	29.3	67	19.7	2	5	248	0.00	29.968 
07:45	29.3	29.3	29.3	67	19.7	2	7	270	0.00	29.981 
07:50	29.1	29.1	29.1	67	19.5	2	3	248	0.00	29.981 
07:55	29.1	29.1	29.1	67	19.5	2	4	248	0.00	29.981 
08:00	29.0	29.0	29.0	67	19.4	2	3	248	0.00	29.987 
08:05	29.0	29.0	29.0	67	19.4	2	4	248	0.00	29.987 
08:10	29.0	29.0	29.0	66	19.1	2	5	248	0.00	29.987 
08:15	29.0	29.0	29.0	66	19.1	1	3	248	0.00	29.993 
08:20	29.0	29.0	29.0	66	19.1	2	4	248	0.00	29.993 
08:25	28.8	28.8	28.8	66	18.9	2	5	270	0.00	29.993 
08:30	28.8	28.8	28.8	66	18.9	3	6	248	0.00	29.996 
08:35	28.8	28.8	28.8	66	18.9	2	4	248	0.00	29.996 
08:40	29.0	29.0	29.0	66	19.1	2	5	225	0.00	29.996 
08:45	29.0	29.0	29.0	66	19.1	2	4	270	0.00	30.006 
08:50	29.0	29.0	29.0	66	19.1	2	5	270	0.00	30.006 
08:55	29.0	29.0	29.0	66	19.1	1	4	270	0.00	30.006 
09:00	29.1	29.1	29.1	66	19.2	2	4	270	0.00	30.013 
09:05	29.1	29.1	29.1	66	19.2	1	5	338	0.00	30.013 
09:10	29.1	29.1	29.1	66	19.2	2	4	270	0.00	30.013 
09:15	29.3	29.3	29.3	66	19.4	2	5	270	0.00	30.023 
09:20	29.3	29.3	29.3	66	19.4	2	4	248	0.00	30.023 
09:25	29.4	29.4	29.4	65	19.1	2	5	270	0.00	30.023 
09:30	29.4	29.4	29.4	65	19.1	1	4	270	0.00	30.030 
09:35	29.4	29.4	29.4	66	19.5	2	4	270	0.00	30.030 
09:40	29.5	29.5	29.5	65	19.2	2	5	270	0.00	30.030 
09:45	29.5	29.5	29.5	65	19.2	2	3	248	0.00	30.040 
09:50	29.5	29.5	29.5	65	19.2	2	4	248	0.00	30.040 
09:55	29.5	29.5	29.5	65	19.2	2	5	248	0.00	30.040 
10:00	29.7	29.7	29.7	65	19.4	2	4	248	0.00	30.045 
10:05	29.7	29.7	29.7	65	19.4	2	4	270	0.00	30.045 
10:10	29.8	29.8	29.8	65	19.5	1	3	270	0.00	30.045 
10:15	30.0	30.0	30.0	65	19.7	1	3	270	0.00	30.056 
10:20	30.0	30.0	30.0	65	19.7	2	5	338	0.00	30.056 
10:25	30.1	30.1	30.1	65	19.8	1	3	292	0.00	30.056 
10:30	30.1	30.1	30.1	64	19.4	2	5	270	0.00	30.057 
10:35	30.1	30.1	30.1	65	19.8	2	5	338	0.00	30.057 
10:40	30.1	30.1	30.1	64	19.4	2	5	270	0.00	30.057 
10:45	30.3	30.3	30.3	65	20.0	2	5	270	0.00	30.060 
10:50	30.3	30.3	30.3	64	19.6	2	5	292	0.00	30.060 
10:55	30.3	30.3	30.3	64	19.6	2	4	270	0.00	30.060 
11:00	30.3	30.3	30.3	64	19.6	2	6	270	0.00	30.068 
11:05	30.3	30.3	30.3	64	19.6	3	5	248	0.00	30.068 
11:10	30.3	30.3	30.3	64	19.6	1	3	315	0.00	30.068 
11:15	30.4	30.4	30.4	65	20.1	2	5	270	0.00	30.072 
11:20	30.6	30.6	30.6	65	20.3	2	4	315	0.00	30.072 
11:25	30.7	30.7	30.7	65	20.3	2	4	315	0.00	30.072 
11:30	30.7	30.7	30.7	65	20.3	1	3	225	0.00	30.077 
11:35	30.6	30.6	30.6	64	19.9	2	5	270	0.00	30.077 
11:40	30.6	30.6	30.6	64	19.9	2	6	270	0.00	30.077 
11:45	30.4	30.4	30.4	64	19.7	1	4	315	0.00	30.079 
11:50	30.4	30.4	30.4	64	19.7	1	3	315	0.00	30.079 
11:55	30.6	30.6	30.6	65	20.3	1	5	315	0.00	30.079 
12:00	30.7	30.7	30.7	64	20.0	2	5	315	0.00	30.085 
12:05	30.7	30.7	30.7	64	20.0	2	7	292	0.00	30.085 
12:10	30.7	30.7	30.7	65	20.3	2	6	270	0.00	30.085 
12:15	30.7	30.7	30.7	64	20.0	2	5	248	0.00	30.087 
12:20	30.7	30.7	30.7	65	20.3	2	5	248	0.00	30.087 
12:25	30.7	30.7	30.7	65	20.3	2	5	270	0.00	30.087 
12:30	30.7	30.7	30.7	65	20.3	2	4	270	0.00	30.093 
12:35	30.7	30.7	30.7	65	20.3	2	4	270	0.00	30.093 
12:40	30.7	30.7	30.7	64	20.0	2	3	248	0.00	30.093 
12:45	30.6	30.6	30.6	64	19.9	2	3	270	0.00	30.095 
12:50	30.6	30.6	30.6	64	19.9	3	6	270	0.00	30.095 
12:55	30.6	30.6	30.6	64	19.9	1	4	270	0.00	30.095 
13:00	30.7	30.7	30.7	65	20.3	1	4	292	0.00	30.101 
13:05	30.6	30.6	30.6	64	19.9	2	5	270	0.00	30.101 
13:10	30.6	30.6	30.6	65	20.3	1	4	248	0.00	30.101 
13:15	30.6	30.6	30.6	65	20.3	1	4	248	0.00	30.101 
13:20	30.6	30.6	30.6	65	20.3	1	4	248	0.00	30.101 
13:25	30.7	30.7	30.7	65	20.3	2	4	270	0.00	30.101 
13:30	30.7	30.7	30.7	65	20.3	0	2	270	0.00	30.106 
13:35	30.9	30.9	30.9	65	20.5	1	4	270	0.00	30.106 
13:40	30.9	30.9	30.9	65	20.5	1	4	0	0.00	30.106 
13:45	30.9	30.9	30.9	64	20.2	1	3	248	0.00	30.107 
13:50	30.6	30.6	30.6	64	19.9	1	3	292	0.00	30.107 
13:55	30.7	30.7	30.7	65	20.3	1	3	315	0.00	30.107 
14:00	30.7	30.7	30.7	65	20.3	2	4	270	0.00	30.113 
14:05	30.6	30.6	30.6	65	20.3	1	4	248	0.00	30.113 
14:10	30.6	30.6	30.6	65	20.3	1	4	0	0.00	30.113 
14:15	30.7	30.7	30.7	65	20.3	1	4	315	0.00	30.118 
14:20	30.7	30.7	30.7	65	20.3	1	4	248	0.00	30.118 
14:25	30.7	30.7	30.7	65	20.3	1	4	248	0.00	30.118 
14:30	30.7	30.7	30.7	65	20.3	1	2	225	0.00	30.124 
14:35	30.7	30.7	30.7	65	20.3	2	4	270	0.00	30.124 
14:40	30.6	30.6	30.6	65	20.3	0	2	270	0.00	30.124 
14:45	30.7	30.7	30.7	65	20.3	1	3	248	0.00	30.127 
14:50	30.7	30.7	30.7	65	20.3	1	4	248	0.00	30.127 
14:55	30.6	30.6	30.6	65	20.3	2	4	248	0.00	30.127 
15:00	30.4	30.4	30.4	65	20.1	1	5	248	0.00	30.137 
15:05	30.4	30.4	30.4	65	20.1	2	5	270	0.00	30.137 
15:10	30.4	30.4	30.4	65	20.1	1	5	225	0.00	30.137 
15:15	30.4	30.4	30.4	65	20.1	1	3	292	0.00	30.138 
15:20	30.4	30.4	30.4	65	20.1	1	3	292	0.00	30.138 
15:25	30.4	30.4	30.4	65	20.1	1	4	338	0.00	30.138 
15:30	30.3	30.3	30.3	65	20.0	1	3	248	0.00	30.138 
15:35	30.3	30.3	30.3	66	20.3	1	4	248	0.00	30.138 
15:40	30.3	30.3	30.3	65	20.0	2	4	248	0.00	30.138 
15:45	30.3	30.3	30.3	65	20.0	1	5	248	0.00	30.147 
15:50	30.3	30.3	30.3	65	20.0	1	4	248	0.00	30.147 
15:55	30.3	30.3	30.3	66	20.3	1	3	248	0.00	30.147 
16:00	30.3	30.3	30.3	65	20.0	1	3	270	0.00	30.151 
16:05	30.4	30.4	30.4	65	20.1	1	2	270	0.00	30.151 
16:10	30.6	30.6	30.6	65	20.3	2	4	270	0.00	30.151 
16:15	30.7	30.7	30.7	64	20.0	1	3	225	0.00	30.155 
16:20	30.6	30.6	30.6	64	19.9	0	2	225	0.00	30.155 
16:25	30.4	30.4	30.4	64	19.7	0	2	0	0.00	30.155 
16:30	30.1	30.1	30.1	64	19.4	0	1	0	0.00	30.156 
16:35	30.0	30.0	30.0	64	19.3	0	2	0	0.00	30.156 
16:40	29.8	29.8	29.8	65	19.5	0	3	338	0.00	30.156 
16:45	29.7	29.7	29.7	65	19.4	0	3	338	0.00	30.157 
16:50	29.5	29.5	29.5	65	19.2	0	1	338	0.00	30.157 
16:55	29.4	29.4	29.4	66	19.5	0	0	---	0.00	30.157 
17:00	29.4	29.4	29.4	66	19.5	0	1	338	0.00	30.160 
17:05	29.3	29.3	29.3	67	19.7	0	1	338	0.00	30.160 
17:10	29.1	29.1	29.1	67	19.5	0	1	338	0.00	30.160 
17:15	29.0	29.0	29.0	67	19.4	0	1	338	0.00	30.168 
17:20	28.8	28.8	28.8	68	19.6	0	0	---	0.00	30.168 
17:25	28.7	28.7	28.7	68	19.5	0	0	---	0.00	30.168 
17:30	28.4	28.4	28.4	68	19.2	0	0	---	0.00	30.172 
17:35	28.2	28.2	28.2	69	19.4	0	0	---	0.00	30.172 
17:40	27.9	27.9	27.9	69	19.1	0	0	---	0.00	30.172 
17:45	27.6	27.6	27.6	69	18.8	0	0	---	0.00	30.178 
17:50	27.3	27.3	27.3	70	18.8	0	0	---	0.00	30.178 
17:55	27.2	27.2	27.2	70	18.7	0	0	---	0.00	30.178 
18:00	26.9	26.9	26.9	71	18.8	0	0	---	0.00	30.181 
18:05	26.6	26.6	26.6	72	18.8	0	0	---	0.00	30.181 
18:10	26.3	26.3	26.3	73	18.8	0	0	---	0.00	30.181 
18:15	26.0	26.0	26.0	73	18.6	0	0	---	0.00	30.189 
18:20	25.8	25.8	25.8	73	18.4	0	0	---	0.00	30.189 
18:25	25.4	25.4	25.4	74	18.3	0	0	---	0.00	30.189 
18:30	25.3	25.3	25.3	74	18.2	0	0	---	0.00	30.193 
18:35	25.0	25.0	25.0	75	18.2	0	0	---	0.00	30.193 
18:40	24.8	24.8	24.8	76	18.3	0	0	---	0.00	30.193 
18:45	24.7	24.7	24.7	77	18.5	0	0	---	0.00	30.197 
18:50	24.7	24.7	24.7	77	18.5	0	0	---	0.00	30.197 
18:55	24.5	24.5	24.5	78	18.6	0	0	---	0.00	30.197 
19:00	24.4	24.4	24.4	78	18.5	0	0	---	0.00	30.205 
19:05	24.2	24.2	24.2	78	18.3	0	0	---	0.00	30.205 
19:10	24.1	24.1	24.1	79	18.5	0	0	---	0.00	30.205 
19:15	23.9	23.9	23.9	79	18.4	0	0	---	0.00	30.200 
19:20	23.6	23.6	23.6	79	18.1	0	0	---	0.00	30.200 
19:25	23.5	23.5	23.5	79	18.0	0	0	---	0.00	30.200 
19:30	23.2	23.2	23.2	81	18.3	0	0	---	0.00	30.197 
19:35	23.0	23.0	23.0	81	18.1	0	0	---	0.00	30.197 
19:40	22.9	22.9	22.9	81	18.0	0	0	---	0.00	30.197 
19:45	22.7	22.7	22.7	81	17.8	0	0	---	0.00	30.203 
19:50	22.5	22.5	22.5	82	17.9	0	0	---	0.00	30.203 
19:55	22.4	22.4	22.4	82	17.8	0	0	---	0.00	30.203 
20:00	22.2	22.2	22.2	82	17.6	0	0	---	0.00	30.201 
20:05	22.1	22.1	22.1	82	17.5	0	0	---	0.00	30.201 
20:10	21.9	21.9	21.9	83	17.5	0	0	---	0.00	30.201 
20:15	21.9	21.9	21.9	83	17.5	0	0	---	0.00	30.207 
20:20	21.8	21.8	21.8	83	17.4	0	0	---	0.00	30.207 
20:25	21.6	21.6	21.6	83	17.3	0	0	---	0.00	30.207 
20:30	21.4	21.4	21.4	84	17.3	0	0	---	0.00	30.212 
20:35	21.3	21.3	21.3	84	17.2	0	0	---	0.00	30.212 
20:40	21.1	21.1	21.1	84	17.0	0	0	---	0.00	30.212 
20:45	21.0	21.0	21.0	84	16.9	0	0	---	0.00	30.216 
20:50	20.8	20.8	20.8	84	16.7	0	0	---	0.00	30.216 
20:55	20.6	20.6	20.6	84	16.5	0	0	---	0.00	30.216 
21:00	20.5	20.5	20.5	84	16.4	0	0	---	0.00	30.212 
21:05	20.5	20.5	20.5	85	16.7	0	0	---	0.00	30.212 
21:10	20.5	20.5	20.5	85	16.7	0	0	---	0.00	30.212 
21:15	20.3	20.3	20.3	85	16.5	0	0	---	0.00	30.214 
21:20	20.3	20.3	20.3	85	16.5	0	0	---	0.00	30.214 
21:25	20.2	20.2	20.2	86	16.7	0	0	---	0.00	30.214 
21:30	20.2	20.2	20.2	86	16.7	0	0	---	0.00	30.213 
21:35	20.0	20.0	20.0	86	16.5	0	0	---	0.00	30.213 
21:40	20.0	20.0	20.0	86	16.5	0	0	---	0.00	30.213 
21:45	20.0	20.0	20.0	87	16.8	0	0	---	0.00	30.214 
21:50	20.0	20.0	20.0	87	16.8	0	0	---	0.00	30.214 
21:55	19.9	19.9	19.9	87	16.7	0	0	---	0.00	30.214 
22:00	19.7	19.7	19.7	87	16.5	0	0	---	0.00	30.215 
22:05	19.7	19.7	19.7	87	16.5	0	0	---	0.00	30.215 
22:10	19.5	19.5	19.5	87	16.3	0	0	---	0.00	30.215 
22:15	19.4	19.4	19.4	87	16.2	0	0	---	0.00	30.226 
22:20	19.4	19.4	19.4	87	16.2	0	0	---	0.00	30.226 
22:25	19.4	19.4	19.4	88	16.4	0	0	---	0.00	30.226 
22:30	19.2	19.2	19.2	88	16.2	0	0	---	0.00	30.215 
22:35	19.2	19.2	19.2	88	16.2	0	0	---	0.00	30.215 
22:40	19.1	19.1	19.1	88	16.1	0	0	---	0.00	30.215 
22:45	19.1	19.1	19.1	88	16.1	0	0	---	0.00	30.225 
22:50	19.1	19.1	19.1	88	16.1	0	0	---	0.00	30.225 
22:55	18.9	18.9	18.9	88	15.9	0	0	---	0.00	30.225 
23:00	18.9	18.9	18.9	88	15.9	0	0	---	0.00	30.220 
23:05	18.9	18.9	18.9	88	15.9	0	0	---	0.00	30.220 
23:10	18.9	18.9	18.9	88	15.9	0	0	---	0.00	30.220 
23:15	18.8	18.8	18.8	88	15.8	0	0	---	0.00	30.217 
23:20	18.6	18.6	18.6	88	15.6	0	0	---	0.00	30.217 
23:25	18.6	18.6	18.6	88	15.6	0	0	---	0.00	30.217 
23:30	18.4	18.4	18.4	88	15.5	0	0	---	0.00	30.226 
23:35	18.4	18.4	18.4	88	15.5	0	0	---	0.00	30.226 
23:40	18.4	18.4	18.4	88	15.5	0	0	---	0.00	30.226 
23:45	18.3	18.3	18.3	88	15.4	0	0	---	0.00	30.231 
23:50	18.3	18.3	18.3	88	15.4	0	0	---	0.00	30.231 
23:55	18.1	18.1	18.1	88	15.2	0	0	---	0.00	30.231 

CoCoRaHS
IN-AL-39
A2 Web Hosting
Creative Commons License
GoDaddy
search engine by freefind advanced

loaded 2018-11-15 18:35:31 • last modified 2010-11-18 10:43:29
Privacy PolicyDisclaimer
• wx.awcolley.com is powered by PmWiki v.2002016 •
• all content (unless otherwise noted) © 2018 A W Colley